sensor_id;sensor_type;location;lat;lon;timestamp;P1;durP1;ratioP1;P2;durP2;ratioP2
75342;SDS011;63936;51.006;13.764;2022-12-18T00:00:03;31;;;16;;
75342;SDS011;63936;51.006;13.764;2022-12-18T00:02:01;31;;;16;;
75342;SDS011;63936;51.006;13.764;2022-12-18T00:04:05;31;;;16;;
75342;SDS011;63936;51.006;13.764;2022-12-18T00:06:02;31;;;15;;
75342;SDS011;63936;51.006;13.764;2022-12-18T00:08:02;31;;;15;;
75342;SDS011;63936;51.006;13.764;2022-12-18T00:10:01;34;;;15;;
75342;SDS011;63936;51.006;13.764;2022-12-18T00:12:01;34;;;15;;
75342;SDS011;63936;51.006;13.764;2022-12-18T00:14:01;30;;;15;;
75342;SDS011;63936;51.006;13.764;2022-12-18T00:16:01;30;;;15;;
75342;SDS011;63936;51.006;13.764;2022-12-18T00:18:01;29;;;15;;
75342;SDS011;63936;51.006;13.764;2022-12-18T00:20:02;28;;;13;;
75342;SDS011;63936;51.006;13.764;2022-12-18T00:22:02;25;;;13;;
75342;SDS011;63936;51.006;13.764;2022-12-18T00:24:02;25;;;13;;
75342;SDS011;63936;51.006;13.764;2022-12-18T00:26:01;28;;;14;;
75342;SDS011;63936;51.006;13.764;2022-12-18T00:28:01;25;;;12;;
75342;SDS011;63936;51.006;13.764;2022-12-18T00:30:02;26;;;14;;
75342;SDS011;63936;51.006;13.764;2022-12-18T00:32:01;26;;;14;;
75342;SDS011;63936;51.006;13.764;2022-12-18T00:34:01;26;;;14;;
75342;SDS011;63936;51.006;13.764;2022-12-18T00:36:01;26;;;14;;
75342;SDS011;63936;51.006;13.764;2022-12-18T00:38:01;26;;;14;;
75342;SDS011;63936;51.006;13.764;2022-12-18T00:40:02;27;;;14;;
75342;SDS011;63936;51.006;13.764;2022-12-18T00:42:02;27;;;14;;
75342;SDS011;63936;51.006;13.764;2022-12-18T00:44:02;28;;;14;;
75342;SDS011;63936;51.006;13.764;2022-12-18T00:46:02;28;;;14;;
75342;SDS011;63936;51.006;13.764;2022-12-18T00:48:02;29;;;15;;
75342;SDS011;63936;51.006;13.764;2022-12-18T00:50:02;29;;;15;;
75342;SDS011;63936;51.006;13.764;2022-12-18T00:52:01;33;;;16;;
75342;SDS011;63936;51.006;13.764;2022-12-18T00:54:01;33;;;16;;
75342;SDS011;63936;51.006;13.764;2022-12-18T00:56:01;29;;;15;;
75342;SDS011;63936;51.006;13.764;2022-12-18T00:58:01;29;;;15;;
75342;SDS011;63936;51.006;13.764;2022-12-18T01:00:02;32;;;16;;
75342;SDS011;63936;51.006;13.764;2022-12-18T01:02:04;32;;;16;;
75342;SDS011;63936;51.006;13.764;2022-12-18T01:04:05;36;;;16;;
75342;SDS011;63936;51.006;13.764;2022-12-18T01:06:05;36;;;16;;
75342;SDS011;63936;51.006;13.764;2022-12-18T01:08:04;31;;;15;;
75342;SDS011;63936;51.006;13.764;2022-12-18T01:10:06;31;;;15;;
75342;SDS011;63936;51.006;13.764;2022-12-18T01:12:02;30;;;16;;
75342;SDS011;63936;51.006;13.764;2022-12-18T01:14:02;30;;;16;;
75342;SDS011;63936;51.006;13.764;2022-12-18T01:16:01;27;;;14;;
75342;SDS011;63936;51.006;13.764;2022-12-18T01:18:02;27;;;14;;
75342;SDS011;63936;51.006;13.764;2022-12-18T01:20:03;25;;;13;;
75342;SDS011;63936;51.006;13.764;2022-12-18T01:22:02;25;;;13;;
75342;SDS011;63936;51.006;13.764;2022-12-18T01:24:02;25;;;13;;
75342;SDS011;63936;51.006;13.764;2022-12-18T01:26:05;18;;;10;;
75342;SDS011;63936;51.006;13.764;2022-12-18T01:28:01;18;;;10;;
75342;SDS011;63936;51.006;13.764;2022-12-18T01:30:03;25;;;13;;
75342;SDS011;63936;51.006;13.764;2022-12-18T01:32:02;25;;;13;;
75342;SDS011;63936;51.006;13.764;2022-12-18T01:34:02;26;;;13;;
75342;SDS011;63936;51.006;13.764;2022-12-18T01:36:04;26;;;13;;
75342;SDS011;63936;51.006;13.764;2022-12-18T01:38:04;28;;;14;;
75342;SDS011;63936;51.006;13.764;2022-12-18T01:40:06;28;;;14;;
75342;SDS011;63936;51.006;13.764;2022-12-18T01:42:08;28;;;13;;
75342;SDS011;63936;51.006;13.764;2022-12-18T01:44:46;28;;;13;;
75342;SDS011;63936;51.006;13.764;2022-12-18T01:46:03;25;;;13;;
75342;SDS011;63936;51.006;13.764;2022-12-18T01:48:04;25;;;13;;
75342;SDS011;63936;51.006;13.764;2022-12-18T01:50:04;25;;;13;;
75342;SDS011;63936;51.006;13.764;2022-12-18T01:52:02;25;;;13;;
75342;SDS011;63936;51.006;13.764;2022-12-18T01:54:02;25;;;13;;
75342;SDS011;63936;51.006;13.764;2022-12-18T01:56:02;25;;;12;;
75342;SDS011;63936;51.006;13.764;2022-12-18T01:58:02;25;;;12;;
75342;SDS011;63936;51.006;13.764;2022-12-18T02:00:04;25;;;13;;
75342;SDS011;63936;51.006;13.764;2022-12-18T02:02:01;25;;;13;;
75342;SDS011;63936;51.006;13.764;2022-12-18T02:04:14;28;;;13;;
75342;SDS011;63936;51.006;13.764;2022-12-18T02:06:04;28;;;13;;
75342;SDS011;63936;51.006;13.764;2022-12-18T02:08:03;26;;;13;;
75342;SDS011;63936;51.006;13.764;2022-12-18T02:10:02;26;;;13;;
75342;SDS011;63936;51.006;13.764;2022-12-18T02:12:03;25;;;13;;
75342;SDS011;63936;51.006;13.764;2022-12-18T02:14:03;25;;;13;;
75342;SDS011;63936;51.006;13.764;2022-12-18T02:16:02;25;;;12;;
75342;SDS011;63936;51.006;13.764;2022-12-18T02:18:02;25;;;12;;
75342;SDS011;63936;51.006;13.764;2022-12-18T02:20:04;21;;;11;;
75342;SDS011;63936;51.006;13.764;2022-12-18T02:22:03;21;;;11;;
75342;SDS011;63936;51.006;13.764;2022-12-18T02:24:04;23;;;11;;
75342;SDS011;63936;51.006;13.764;2022-12-18T02:26:04;21;;;9;;
75342;SDS011;63936;51.006;13.764;2022-12-18T02:28:01;21;;;11;;
75342;SDS011;63936;51.006;13.764;2022-12-18T02:30:02;21;;;11;;
75342;SDS011;63936;51.006;13.764;2022-12-18T02:32:02;22;;;11;;
75342;SDS011;63936;51.006;13.764;2022-12-18T02:34:02;22;;;11;;
75342;SDS011;63936;51.006;13.764;2022-12-18T02:36:01;21;;;11;;
75342;SDS011;63936;51.006;13.764;2022-12-18T02:38:01;21;;;11;;
75342;SDS011;63936;51.006;13.764;2022-12-18T02:40:02;22;;;11;;
75342;SDS011;63936;51.006;13.764;2022-12-18T02:42:02;22;;;11;;
75342;SDS011;63936;51.006;13.764;2022-12-18T02:44:06;22;;;11;;
75342;SDS011;63936;51.006;13.764;2022-12-18T02:46:01;22;;;11;;
75342;SDS011;63936;51.006;13.764;2022-12-18T02:48:01;23;;;12;;
75342;SDS011;63936;51.006;13.764;2022-12-18T02:50:03;23;;;12;;
75342;SDS011;63936;51.006;13.764;2022-12-18T02:52:03;21;;;10;;
75342;SDS011;63936;51.006;13.764;2022-12-18T02:54:03;21;;;10;;
75342;SDS011;63936;51.006;13.764;2022-12-18T02:56:03;22;;;11;;
75342;SDS011;63936;51.006;13.764;2022-12-18T02:58:03;22;;;11;;
75342;SDS011;63936;51.006;13.764;2022-12-18T03:00:03;21;;;10;;
75342;SDS011;63936;51.006;13.764;2022-12-18T03:02:02;21;;;10;;
75342;SDS011;63936;51.006;13.764;2022-12-18T03:04:04;20;;;10;;
75342;SDS011;63936;51.006;13.764;2022-12-18T03:06:04;20;;;10;;
75342;SDS011;63936;51.006;13.764;2022-12-18T03:08:05;20;;;10;;
75342;SDS011;63936;51.006;13.764;2022-12-18T03:10:03;20;;;10;;
75342;SDS011;63936;51.006;13.764;2022-12-18T03:12:04;17;;;8;;
75342;SDS011;63936;51.006;13.764;2022-12-18T03:14:02;17;;;8;;
75342;SDS011;63936;51.006;13.764;2022-12-18T03:16:02;18;;;9;;
75342;SDS011;63936;51.006;13.764;2022-12-18T03:18:02;18;;;9;;
75342;SDS011;63936;51.006;13.764;2022-12-18T03:20:04;18;;;8;;
75342;SDS011;63936;51.006;13.764;2022-12-18T03:22:02;18;;;8;;
75342;SDS011;63936;51.006;13.764;2022-12-18T03:24:02;16;;;8;;
75342;SDS011;63936;51.006;13.764;2022-12-18T03:26:03;16;;;8;;
75342;SDS011;63936;51.006;13.764;2022-12-18T03:28:01;16;;;8;;
75342;SDS011;63936;51.006;13.764;2022-12-18T03:30:03;16;;;8;;
75342;SDS011;63936;51.006;13.764;2022-12-18T03:32:01;16;;;7;;
75342;SDS011;63936;51.006;13.764;2022-12-18T03:34:02;16;;;7;;
75342;SDS011;63936;51.006;13.764;2022-12-18T03:36:01;15;;;7;;
75342;SDS011;63936;51.006;13.764;2022-12-18T03:38:01;15;;;7;;
75342;SDS011;63936;51.006;13.764;2022-12-18T03:40:01;16;;;8;;
75342;SDS011;63936;51.006;13.764;2022-12-18T03:42:02;16;;;8;;
75342;SDS011;63936;51.006;13.764;2022-12-18T03:44:03;16;;;8;;
75342;SDS011;63936;51.006;13.764;2022-12-18T03:46:02;16;;;8;;
75342;SDS011;63936;51.006;13.764;2022-12-18T03:48:02;16;;;7;;
75342;SDS011;63936;51.006;13.764;2022-12-18T03:50:03;16;;;7;;
75342;SDS011;63936;51.006;13.764;2022-12-18T03:52:02;15;;;7;;
75342;SDS011;63936;51.006;13.764;2022-12-18T03:54:02;15;;;7;;
75342;SDS011;63936;51.006;13.764;2022-12-18T03:56:02;14;;;7;;
75342;SDS011;63936;51.006;13.764;2022-12-18T03:58:02;14;;;7;;
75342;SDS011;63936;51.006;13.764;2022-12-18T04:00:04;15;;;8;;
75342;SDS011;63936;51.006;13.764;2022-12-18T04:02:01;15;;;8;;
75342;SDS011;63936;51.006;13.764;2022-12-18T04:04:02;15;;;8;;
75342;SDS011;63936;51.006;13.764;2022-12-18T04:06:05;15;;;8;;
75342;SDS011;63936;51.006;13.764;2022-12-18T04:08:02;15;;;8;;
75342;SDS011;63936;51.006;13.764;2022-12-18T04:10:02;15;;;8;;
75342;SDS011;63936;51.006;13.764;2022-12-18T04:12:01;16;;;8;;
75342;SDS011;63936;51.006;13.764;2022-12-18T04:14:01;16;;;8;;
75342;SDS011;63936;51.006;13.764;2022-12-18T04:16:01;16;;;7;;
75342;SDS011;63936;51.006;13.764;2022-12-18T04:18:01;16;;;7;;
75342;SDS011;63936;51.006;13.764;2022-12-18T04:20:01;16;;;7;;
75342;SDS011;63936;51.006;13.764;2022-12-18T04:22:01;16;;;7;;
75342;SDS011;63936;51.006;13.764;2022-12-18T04:24:01;18;;;8;;
75342;SDS011;63936;51.006;13.764;2022-12-18T04:26:01;18;;;8;;
75342;SDS011;63936;51.006;13.764;2022-12-18T04:28:01;28;;;12;;
75342;SDS011;63936;51.006;13.764;2022-12-18T04:30:02;28;;;12;;
75342;SDS011;63936;51.006;13.764;2022-12-18T04:32:02;18;;;9;;
75342;SDS011;63936;51.006;13.764;2022-12-18T04:34:02;18;;;9;;
75342;SDS011;63936;51.006;13.764;2022-12-18T04:36:02;48;;;22;;
75342;SDS011;63936;51.006;13.764;2022-12-18T04:38:01;48;;;22;;
75342;SDS011;63936;51.006;13.764;2022-12-18T04:40:01;164;;;72;;
75342;SDS011;63936;51.006;13.764;2022-12-18T04:42:01;164;;;72;;
75342;SDS011;63936;51.006;13.764;2022-12-18T04:44:01;150;;;72;;
75342;SDS011;63936;51.006;13.764;2022-12-18T04:46:02;150;;;72;;
75342;SDS011;63936;51.006;13.764;2022-12-18T04:48:02;21;;;11;;
75342;SDS011;63936;51.006;13.764;2022-12-18T04:50:02;21;;;11;;
75342;SDS011;63936;51.006;13.764;2022-12-18T04:52:02;18;;;8;;
75342;SDS011;63936;51.006;13.764;2022-12-18T04:54:02;18;;;8;;
75342;SDS011;63936;51.006;13.764;2022-12-18T04:56:03;13;;;7;;
75342;SDS011;63936;51.006;13.764;2022-12-18T04:58:02;13;;;7;;
75342;SDS011;63936;51.006;13.764;2022-12-18T05:00:02;15;;;7;;
75342;SDS011;63936;51.006;13.764;2022-12-18T05:02:01;15;;;7;;
75342;SDS011;63936;51.006;13.764;2022-12-18T05:04:01;15;;;7;;
75342;SDS011;63936;51.006;13.764;2022-12-18T05:06:01;14;;;7;;
75342;SDS011;63936;51.006;13.764;2022-12-18T05:08:01;14;;;7;;
75342;SDS011;63936;51.006;13.764;2022-12-18T05:10:02;16;;;7;;
75342;SDS011;63936;51.006;13.764;2022-12-18T05:12:02;16;;;7;;
75342;SDS011;63936;51.006;13.764;2022-12-18T05:14:02;14;;;7;;
75342;SDS011;63936;51.006;13.764;2022-12-18T05:16:02;14;;;7;;
75342;SDS011;63936;51.006;13.764;2022-12-18T05:18:02;15;;;7;;
75342;SDS011;63936;51.006;13.764;2022-12-18T05:20:01;13;;;7;;
75342;SDS011;63936;51.006;13.764;2022-12-18T05:22:01;13;;;7;;
75342;SDS011;63936;51.006;13.764;2022-12-18T05:24:01;15;;;8;;
75342;SDS011;63936;51.006;13.764;2022-12-18T05:26:02;11;;;6;;
75342;SDS011;63936;51.006;13.764;2022-12-18T05:28:01;14;;;7;;
75342;SDS011;63936;51.006;13.764;2022-12-18T05:30:02;14;;;7;;
75342;SDS011;63936;51.006;13.764;2022-12-18T05:32:01;15;;;7;;
75342;SDS011;63936;51.006;13.764;2022-12-18T05:34:01;15;;;7;;
75342;SDS011;63936;51.006;13.764;2022-12-18T05:36:02;16;;;8;;
75342;SDS011;63936;51.006;13.764;2022-12-18T05:38:01;16;;;8;;
75342;SDS011;63936;51.006;13.764;2022-12-18T05:40:01;18;;;9;;
75342;SDS011;63936;51.006;13.764;2022-12-18T05:42:01;18;;;9;;
75342;SDS011;63936;51.006;13.764;2022-12-18T05:44:01;21;;;9;;
75342;SDS011;63936;51.006;13.764;2022-12-18T05:46:03;21;;;9;;
75342;SDS011;63936;51.006;13.764;2022-12-18T05:48:01;20;;;9;;
75342;SDS011;63936;51.006;13.764;2022-12-18T05:50:01;20;;;9;;
75342;SDS011;63936;51.006;13.764;2022-12-18T05:52:01;20;;;9;;
75342;SDS011;63936;51.006;13.764;2022-12-18T05:54:01;20;;;9;;
75342;SDS011;63936;51.006;13.764;2022-12-18T05:56:02;18;;;9;;
75342;SDS011;63936;51.006;13.764;2022-12-18T05:58:02;18;;;9;;
75342;SDS011;63936;51.006;13.764;2022-12-18T06:00:02;16;;;8;;
75342;SDS011;63936;51.006;13.764;2022-12-18T06:02:02;16;;;8;;
75342;SDS011;63936;51.006;13.764;2022-12-18T06:04:02;19;;;9;;
75342;SDS011;63936;51.006;13.764;2022-12-18T06:06:01;19;;;9;;
75342;SDS011;63936;51.006;13.764;2022-12-18T06:08:01;18;;;9;;
75342;SDS011;63936;51.006;13.764;2022-12-18T06:10:02;18;;;9;;
75342;SDS011;63936;51.006;13.764;2022-12-18T06:12:01;20;;;10;;
75342;SDS011;63936;51.006;13.764;2022-12-18T06:14:02;20;;;10;;
75342;SDS011;63936;51.006;13.764;2022-12-18T06:16:02;19;;;9;;
75342;SDS011;63936;51.006;13.764;2022-12-18T06:18:02;19;;;9;;
75342;SDS011;63936;51.006;13.764;2022-12-18T06:20:02;19;;;9;;
75342;SDS011;63936;51.006;13.764;2022-12-18T06:22:02;19;;;9;;
75342;SDS011;63936;51.006;13.764;2022-12-18T06:24:01;20;;;9;;
75342;SDS011;63936;51.006;13.764;2022-12-18T06:26:03;20;;;9;;
75342;SDS011;63936;51.006;13.764;2022-12-18T06:28:01;15;;;7;;
75342;SDS011;63936;51.006;13.764;2022-12-18T06:30:02;16;;;8;;
75342;SDS011;63936;51.006;13.764;2022-12-18T06:32:02;16;;;8;;
75342;SDS011;63936;51.006;13.764;2022-12-18T06:34:02;20;;;10;;
75342;SDS011;63936;51.006;13.764;2022-12-18T06:36:02;20;;;10;;
75342;SDS011;63936;51.006;13.764;2022-12-18T06:38:03;21;;;10;;
75342;SDS011;63936;51.006;13.764;2022-12-18T06:40:04;21;;;10;;
75342;SDS011;63936;51.006;13.764;2022-12-18T06:42:03;21;;;10;;
75342;SDS011;63936;51.006;13.764;2022-12-18T06:44:02;21;;;10;;
75342;SDS011;63936;51.006;13.764;2022-12-18T06:46:03;22;;;10;;
75342;SDS011;63936;51.006;13.764;2022-12-18T06:48:01;22;;;10;;
75342;SDS011;63936;51.006;13.764;2022-12-18T06:50:04;23;;;11;;
75342;SDS011;63936;51.006;13.764;2022-12-18T06:52:02;23;;;11;;
75342;SDS011;63936;51.006;13.764;2022-12-18T06:54:01;24;;;12;;
75342;SDS011;63936;51.006;13.764;2022-12-18T06:56:02;24;;;12;;
75342;SDS011;63936;51.006;13.764;2022-12-18T06:58:02;26;;;12;;
75342;SDS011;63936;51.006;13.764;2022-12-18T07:00:03;26;;;12;;
75342;SDS011;63936;51.006;13.764;2022-12-18T07:02:02;23;;;11;;
75342;SDS011;63936;51.006;13.764;2022-12-18T07:04:02;23;;;11;;
75342;SDS011;63936;51.006;13.764;2022-12-18T07:06:02;23;;;10;;
75342;SDS011;63936;51.006;13.764;2022-12-18T07:08:02;23;;;10;;
75342;SDS011;63936;51.006;13.764;2022-12-18T07:10:03;22;;;10;;
75342;SDS011;63936;51.006;13.764;2022-12-18T07:12:02;22;;;10;;
75342;SDS011;63936;51.006;13.764;2022-12-18T07:14:02;20;;;10;;
75342;SDS011;63936;51.006;13.764;2022-12-18T07:16:04;20;;;10;;
75342;SDS011;63936;51.006;13.764;2022-12-18T07:18:01;20;;;10;;
75342;SDS011;63936;51.006;13.764;2022-12-18T07:20:02;19;;;9;;
75342;SDS011;63936;51.006;13.764;2022-12-18T07:22:02;19;;;9;;
75342;SDS011;63936;51.006;13.764;2022-12-18T07:24:02;20;;;10;;
75342;SDS011;63936;51.006;13.764;2022-12-18T07:26:02;20;;;10;;
75342;SDS011;63936;51.006;13.764;2022-12-18T07:28:02;25;;;12;;
75342;SDS011;63936;51.006;13.764;2022-12-18T07:30:03;25;;;12;;
75342;SDS011;63936;51.006;13.764;2022-12-18T07:32:02;19;;;10;;
75342;SDS011;63936;51.006;13.764;2022-12-18T07:34:02;19;;;10;;
75342;SDS011;63936;51.006;13.764;2022-12-18T07:36:02;21;;;10;;
75342;SDS011;63936;51.006;13.764;2022-12-18T07:38:02;21;;;10;;
75342;SDS011;63936;51.006;13.764;2022-12-18T07:40:04;18;;;10;;
75342;SDS011;63936;51.006;13.764;2022-12-18T07:42:02;18;;;10;;
75342;SDS011;63936;51.006;13.764;2022-12-18T07:44:02;19;;;10;;
75342;SDS011;63936;51.006;13.764;2022-12-18T07:46:01;19;;;10;;
75342;SDS011;63936;51.006;13.764;2022-12-18T07:48:01;20;;;10;;
75342;SDS011;63936;51.006;13.764;2022-12-18T07:50:02;20;;;10;;
75342;SDS011;63936;51.006;13.764;2022-12-18T07:52:02;21;;;11;;
75342;SDS011;63936;51.006;13.764;2022-12-18T07:54:01;21;;;11;;
75342;SDS011;63936;51.006;13.764;2022-12-18T07:56:02;22;;;11;;
75342;SDS011;63936;51.006;13.764;2022-12-18T07:58:02;22;;;11;;
75342;SDS011;63936;51.006;13.764;2022-12-18T08:00:05;24;;;12;;
75342;SDS011;63936;51.006;13.764;2022-12-18T08:02:01;24;;;12;;
75342;SDS011;63936;51.006;13.764;2022-12-18T08:04:01;23;;;12;;
75342;SDS011;63936;51.006;13.764;2022-12-18T08:06:02;23;;;12;;
75342;SDS011;63936;51.006;13.764;2022-12-18T08:08:02;25;;;12;;
75342;SDS011;63936;51.006;13.764;2022-12-18T08:10:02;25;;;12;;
75342;SDS011;63936;51.006;13.764;2022-12-18T08:12:01;24;;;12;;
75342;SDS011;63936;51.006;13.764;2022-12-18T08:14:02;24;;;12;;
75342;SDS011;63936;51.006;13.764;2022-12-18T08:16:02;23;;;12;;
75342;SDS011;63936;51.006;13.764;2022-12-18T08:18:01;23;;;12;;
75342;SDS011;63936;51.006;13.764;2022-12-18T08:20:02;24;;;12;;
75342;SDS011;63936;51.006;13.764;2022-12-18T08:22:01;24;;;12;;
75342;SDS011;63936;51.006;13.764;2022-12-18T08:24:02;25;;;13;;
75342;SDS011;63936;51.006;13.764;2022-12-18T08:26:02;20;;;10;;
75342;SDS011;63936;51.006;13.764;2022-12-18T08:28:02;20;;;10;;
75342;SDS011;63936;51.006;13.764;2022-12-18T08:30:04;25;;;13;;
75342;SDS011;63936;51.006;13.764;2022-12-18T08:32:01;26;;;13;;
75342;SDS011;63936;51.006;13.764;2022-12-18T08:34:02;26;;;13;;
75342;SDS011;63936;51.006;13.764;2022-12-18T08:36:01;24;;;13;;
75342;SDS011;63936;51.006;13.764;2022-12-18T08:38:02;24;;;13;;
75342;SDS011;63936;51.006;13.764;2022-12-18T08:40:03;26;;;13;;
75342;SDS011;63936;51.006;13.764;2022-12-18T08:42:02;26;;;13;;
75342;SDS011;63936;51.006;13.764;2022-12-18T08:44:02;23;;;12;;
75342;SDS011;63936;51.006;13.764;2022-12-18T08:46:01;23;;;12;;
75342;SDS011;63936;51.006;13.764;2022-12-18T08:48:02;22;;;12;;
75342;SDS011;63936;51.006;13.764;2022-12-18T08:50:02;22;;;12;;
75342;SDS011;63936;51.006;13.764;2022-12-18T08:52:02;23;;;12;;
75342;SDS011;63936;51.006;13.764;2022-12-18T08:54:02;23;;;12;;
75342;SDS011;63936;51.006;13.764;2022-12-18T08:56:01;23;;;13;;
75342;SDS011;63936;51.006;13.764;2022-12-18T08:58:01;23;;;13;;
75342;SDS011;63936;51.006;13.764;2022-12-18T09:00:02;25;;;14;;
75342;SDS011;63936;51.006;13.764;2022-12-18T09:02:01;24;;;12;;
75342;SDS011;63936;51.006;13.764;2022-12-18T09:04:01;29;;;15;;
75342;SDS011;63936;51.006;13.764;2022-12-18T09:06:02;27;;;15;;
75342;SDS011;63936;51.006;13.764;2022-12-18T09:08:02;26;;;15;;
75342;SDS011;63936;51.006;13.764;2022-12-18T09:10:04;26;;;15;;
75342;SDS011;63936;51.006;13.764;2022-12-18T09:12:01;26;;;15;;
75342;SDS011;63936;51.006;13.764;2022-12-18T09:14:02;26;;;15;;
75342;SDS011;63936;51.006;13.764;2022-12-18T09:16:02;26;;;15;;
75342;SDS011;63936;51.006;13.764;2022-12-18T09:18:01;26;;;15;;
75342;SDS011;63936;51.006;13.764;2022-12-18T09:20:02;26;;;15;;
75342;SDS011;63936;51.006;13.764;2022-12-18T09:22:01;26;;;15;;
75342;SDS011;63936;51.006;13.764;2022-12-18T09:24:02;26;;;14;;
75342;SDS011;63936;51.006;13.764;2022-12-18T09:26:02;19;;;11;;
75342;SDS011;63936;51.006;13.764;2022-12-18T09:28:03;19;;;11;;
75342;SDS011;63936;51.006;13.764;2022-12-18T09:30:04;25;;;14;;
75342;SDS011;63936;51.006;13.764;2022-12-18T09:32:03;27;;;16;;
75342;SDS011;63936;51.006;13.764;2022-12-18T09:34:01;27;;;16;;
75342;SDS011;63936;51.006;13.764;2022-12-18T09:36:02;25;;;13;;
75342;SDS011;63936;51.006;13.764;2022-12-18T09:38:01;23;;;11;;
75342;SDS011;63936;51.006;13.764;2022-12-18T09:40:02;23;;;11;;
75342;SDS011;63936;51.006;13.764;2022-12-18T09:42:01;29;;;15;;
75342;SDS011;63936;51.006;13.764;2022-12-18T09:44:02;22;;;12;;
75342;SDS011;63936;51.006;13.764;2022-12-18T09:46:03;22;;;12;;
75342;SDS011;63936;51.006;13.764;2022-12-18T09:48:01;27;;;15;;
75342;SDS011;63936;51.006;13.764;2022-12-18T09:50:04;24;;;13;;
75342;SDS011;63936;51.006;13.764;2022-12-18T09:52:02;24;;;13;;
75342;SDS011;63936;51.006;13.764;2022-12-18T09:54:03;27;;;10;;
75342;SDS011;63936;51.006;13.764;2022-12-18T09:56:03;25;;;13;;
75342;SDS011;63936;51.006;13.764;2022-12-18T09:58:02;27;;;16;;
75342;SDS011;63936;51.006;13.764;2022-12-18T10:00:03;22;;;12;;
75342;SDS011;63936;51.006;13.764;2022-12-18T10:02:05;22;;;12;;
75342;SDS011;63936;51.006;13.764;2022-12-18T10:04:01;27;;;17;;
75342;SDS011;63936;51.006;13.764;2022-12-18T10:06:02;26;;;15;;
75342;SDS011;63936;51.006;13.764;2022-12-18T10:08:02;24;;;13;;
75342;SDS011;63936;51.006;13.764;2022-12-18T10:10:07;27;;;14;;
75342;SDS011;63936;51.006;13.764;2022-12-18T10:12:04;23;;;12;;
75342;SDS011;63936;51.006;13.764;2022-12-18T10:14:03;24;;;13;;
75342;SDS011;63936;51.006;13.764;2022-12-18T10:16:05;24;;;13;;
75342;SDS011;63936;51.006;13.764;2022-12-18T10:18:02;29;;;17;;
75342;SDS011;63936;51.006;13.764;2022-12-18T10:20:05;29;;;17;;
75342;SDS011;63936;51.006;13.764;2022-12-18T10:22:02;18;;;11;;
75342;SDS011;63936;51.006;13.764;2022-12-18T10:24:02;18;;;11;;
75342;SDS011;63936;51.006;13.764;2022-12-18T10:26:02;30;;;17;;
75342;SDS011;63936;51.006;13.764;2022-12-18T10:28:07;27;;;16;;
75342;SDS011;63936;51.006;13.764;2022-12-18T10:30:04;14;;;9;;
75342;SDS011;63936;51.006;13.764;2022-12-18T10:32:01;14;;;9;;
75342;SDS011;63936;51.006;13.764;2022-12-18T10:34:01;24;;;13;;
75342;SDS011;63936;51.006;13.764;2022-12-18T10:36:02;21;;;12;;
75342;SDS011;63936;51.006;13.764;2022-12-18T10:38:03;18;;;10;;
75342;SDS011;63936;51.006;13.764;2022-12-18T10:40:07;18;;;10;;
75342;SDS011;63936;51.006;13.764;2022-12-18T10:42:09;18;;;10;;
75342;SDS011;63936;51.006;13.764;2022-12-18T10:44:17;26;;;15;;
75342;SDS011;63936;51.006;13.764;2022-12-18T10:46:03;19;;;14;;
75342;SDS011;63936;51.006;13.764;2022-12-18T10:48:01;24;;;16;;
75342;SDS011;63936;51.006;13.764;2022-12-18T10:50:02;16;;;12;;
75342;SDS011;63936;51.006;13.764;2022-12-18T10:52:05;23;;;15;;
75342;SDS011;63936;51.006;13.764;2022-12-18T10:54:02;23;;;15;;
75342;SDS011;63936;51.006;13.764;2022-12-18T10:56:02;29;;;19;;
75342;SDS011;63936;51.006;13.764;2022-12-18T10:58:13;21;;;16;;
75342;SDS011;63936;51.006;13.764;2022-12-18T11:00:20;21;;;16;;
75342;SDS011;63936;51.006;13.764;2022-12-18T11:02:07;21;;;16;;
75342;SDS011;63936;51.006;13.764;2022-12-18T11:04:05;35;;;24;;
75342;SDS011;63936;51.006;13.764;2022-12-18T11:06:02;30;;;23;;
75342;SDS011;63936;51.006;13.764;2022-12-18T11:08:01;30;;;20;;
75342;SDS011;63936;51.006;13.764;2022-12-18T11:10:02;21;;;17;;
75342;SDS011;63936;51.006;13.764;2022-12-18T11:12:02;21;;;16;;
75342;SDS011;63936;51.006;13.764;2022-12-18T11:14:02;27;;;16;;
75342;SDS011;63936;51.006;13.764;2022-12-18T11:16:02;27;;;16;;
75342;SDS011;63936;51.006;13.764;2022-12-18T11:18:02;28;;;15;;
75342;SDS011;63936;51.006;13.764;2022-12-18T11:20:03;16;;;10;;
75342;SDS011;63936;51.006;13.764;2022-12-18T11:22:03;17;;;8;;
75342;SDS011;63936;51.006;13.764;2022-12-18T11:24:01;16;;;8;;
75342;SDS011;63936;51.006;13.764;2022-12-18T11:26:02;20;;;11;;
75342;SDS011;63936;51.006;13.764;2022-12-18T11:28:03;20;;;11;;
75342;SDS011;63936;51.006;13.764;2022-12-18T11:30:12;32;;;17;;
75342;SDS011;63936;51.006;13.764;2022-12-18T11:32:13;22;;;11;;
75342;SDS011;63936;51.006;13.764;2022-12-18T11:34:02;20;;;10;;
75342;SDS011;63936;51.006;13.764;2022-12-18T11:36:02;23;;;11;;
75342;SDS011;63936;51.006;13.764;2022-12-18T11:38:02;19;;;10;;
75342;SDS011;63936;51.006;13.764;2022-12-18T11:40:04;13;;;7;;
75342;SDS011;63936;51.006;13.764;2022-12-18T11:42:02;16;;;8;;
75342;SDS011;63936;51.006;13.764;2022-12-18T11:44:01;15;;;8;;
75342;SDS011;63936;51.006;13.764;2022-12-18T11:46:02;22;;;10;;
75342;SDS011;63936;51.006;13.764;2022-12-18T11:48:02;29;;;15;;
75342;SDS011;63936;51.006;13.764;2022-12-18T11:50:02;25;;;12;;
75342;SDS011;63936;51.006;13.764;2022-12-18T11:52:02;19;;;10;;
75342;SDS011;63936;51.006;13.764;2022-12-18T11:54:02;19;;;8;;
75342;SDS011;63936;51.006;13.764;2022-12-18T11:56:04;27;;;12;;
75342;SDS011;63936;51.006;13.764;2022-12-18T11:58:03;30;;;15;;
75342;SDS011;63936;51.006;13.764;2022-12-18T12:00:03;24;;;13;;
75342;SDS011;63936;51.006;13.764;2022-12-18T12:02:04;24;;;13;;
75342;SDS011;63936;51.006;13.764;2022-12-18T12:04:14;21;;;10;;
75342;SDS011;63936;51.006;13.764;2022-12-18T12:06:04;21;;;10;;
75342;SDS011;63936;51.006;13.764;2022-12-18T12:08:01;29;;;15;;
75342;SDS011;63936;51.006;13.764;2022-12-18T12:10:04;31;;;15;;
75342;SDS011;63936;51.006;13.764;2022-12-18T12:12:14;26;;;12;;
75342;SDS011;63936;51.006;13.764;2022-12-18T12:14:06;33;;;16;;
75342;SDS011;63936;51.006;13.764;2022-12-18T12:16:04;25;;;11;;
75342;SDS011;63936;51.006;13.764;2022-12-18T12:18:03;23;;;9;;
75342;SDS011;63936;51.006;13.764;2022-12-18T12:20:02;23;;;9;;
75342;SDS011;63936;51.006;13.764;2022-12-18T12:22:03;20;;;9;;
75342;SDS011;63936;51.006;13.764;2022-12-18T12:24:03;20;;;9;;
75342;SDS011;63936;51.006;13.764;2022-12-18T12:26:02;23;;;9;;
75342;SDS011;63936;51.006;13.764;2022-12-18T12:28:05;22;;;9;;
75342;SDS011;63936;51.006;13.764;2022-12-18T12:30:03;36;;;18;;
75342;SDS011;63936;51.006;13.764;2022-12-18T12:32:04;32;;;17;;
75342;SDS011;63936;51.006;13.764;2022-12-18T12:34:03;27;;;14;;
75342;SDS011;63936;51.006;13.764;2022-12-18T12:36:02;16;;;8;;
75342;SDS011;63936;51.006;13.764;2022-12-18T12:38:04;14;;;7;;
75342;SDS011;63936;51.006;13.764;2022-12-18T12:40:02;15;;;7;;